createdAt,value
2018-11-13T00:00:23.626Z,16.94
2018-11-13T00:02:53.521Z,16.03
2018-11-13T00:05:23.403Z,15.71
2018-11-13T00:07:52.646Z,15.40
2018-11-13T00:10:22.154Z,15.37
2018-11-13T00:12:51.352Z,15.76
2018-11-13T00:15:20.595Z,15.99
2018-11-13T00:17:49.831Z,16.01
2018-11-13T00:20:19.747Z,16.27
2018-11-13T00:22:49.267Z,16.42
2018-11-13T00:25:19.680Z,16.53
2018-11-13T00:27:48.910Z,16.42
2018-11-13T00:30:21.592Z,16.49
2018-11-13T00:32:51.129Z,16.39
2018-11-13T00:35:21.085Z,16.35
2018-11-13T00:37:50.698Z,16.38
2018-11-13T00:40:20.146Z,16.35
2018-11-13T00:42:49.759Z,16.06
2018-11-13T00:45:19.101Z,15.85
2018-11-13T00:47:48.257Z,16.11
2018-11-13T00:50:19.015Z,16.12
2018-11-13T00:52:48.923Z,16.30
2018-11-13T00:55:19.191Z,16.31
2018-11-13T00:57:49.234Z,16.34
2018-11-13T01:00:20.937Z,16.29
2018-11-13T01:02:50.437Z,16.28
2018-11-13T01:05:21.021Z,16.41
2018-11-13T01:07:51.555Z,16.48
2018-11-13T01:10:21.525Z,16.50
2018-11-13T01:12:51.079Z,16.54
2018-11-13T01:15:21.635Z,16.54
2018-11-13T01:17:51.263Z,16.45
2018-11-13T01:20:20.587Z,16.39
2018-11-13T01:22:49.964Z,16.39
2018-11-13T01:25:19.468Z,16.38
2018-11-13T01:27:48.872Z,16.29
2018-11-13T01:30:18.782Z,16.35
2018-11-13T01:32:48.120Z,16.20
2018-11-13T01:35:18.850Z,16.24
2018-11-13T01:37:48.346Z,16.27
2018-11-13T01:40:19.778Z,16.08
2018-11-13T01:42:49.173Z,16.16
2018-11-13T01:45:20.116Z,16.19
2018-11-13T01:47:49.519Z,16.19
2018-11-13T01:50:19.221Z,16.11
2018-11-13T01:52:48.622Z,16.12
2018-11-13T01:55:17.920Z,16.06
2018-11-13T01:57:47.324Z,16.12
2018-11-13T02:00:21.332Z,16.14
2018-11-13T02:02:51.861Z,16.22
2018-11-13T02:05:22.988Z,16.23
2018-11-13T02:07:52.919Z,16.30
2018-11-13T02:10:22.276Z,16.24
2018-11-13T02:12:52.439Z,16.05
2018-11-13T02:15:22.456Z,16.15
2018-11-13T02:17:51.959Z,16.20
2018-11-13T02:20:22.339Z,16.19
2018-11-13T02:22:51.611Z,16.26
2018-11-13T02:25:21.445Z,16.31
2018-11-13T02:27:50.850Z,16.25
2018-11-13T02:30:22.401Z,16.28
2018-11-13T02:32:51.918Z,16.34
2018-11-13T02:35:21.254Z,16.39
2018-11-13T02:37:50.510Z,16.38
2018-11-13T02:40:20.266Z,16.40
2018-11-13T02:42:49.682Z,16.40
2018-11-13T02:45:19.983Z,16.36
2018-11-13T02:47:49.318Z,16.19
2018-11-13T02:50:19.926Z,16.23
2018-11-13T02:52:49.629Z,16.28
2018-11-13T02:55:19.132Z,16.28
2018-11-13T02:57:48.533Z,16.24
2018-11-13T03:00:20.496Z,16.25
2018-11-13T03:02:50.215Z,16.12
2018-11-13T03:05:20.835Z,16.07
2018-11-13T03:07:50.134Z,15.97
2018-11-13T03:10:20.743Z,15.95
2018-11-13T03:12:50.168Z,16.03
2018-11-13T03:15:20.654Z,15.97
2018-11-13T03:17:50.101Z,15.80
2018-11-13T03:20:20.320Z,15.79
2018-11-13T03:22:50.128Z,15.84
2018-11-13T03:25:20.760Z,15.84
2018-11-13T03:27:50.163Z,15.92
2018-11-13T03:30:24.570Z,15.81
2018-11-13T03:32:54.699Z,15.93
2018-11-13T03:35:24.101Z,15.85
2018-11-13T03:37:53.504Z,15.88
2018-11-13T03:40:22.759Z,15.93
2018-11-13T03:42:52.413Z,16.00
2018-11-13T03:45:21.823Z,16.01
2018-11-13T03:47:51.315Z,15.86
2018-11-13T03:50:21.908Z,15.70
2018-11-13T03:52:51.402Z,15.85
2018-11-13T03:55:21.177Z,15.95
2018-11-13T03:57:50.897Z,15.97
2018-11-13T04:00:22.353Z,15.99
2018-11-13T04:02:51.566Z,15.97
2018-11-13T04:05:21.687Z,15.95
2018-11-13T04:07:53.288Z,15.98
2018-11-13T04:10:23.224Z,15.98
2018-11-13T04:12:52.820Z,15.97
2018-11-13T04:15:23.650Z,15.96
2018-11-13T04:17:53.255Z,15.93
2018-11-13T04:20:23.357Z,15.97
2018-11-13T04:22:52.772Z,15.59
2018-11-13T04:25:22.111Z,15.54
2018-11-13T04:27:51.477Z,15.51
2018-11-13T04:30:20.731Z,15.47
2018-11-13T04:32:50.206Z,15.39
2018-11-13T04:35:20.339Z,15.36
2018-11-13T04:37:49.697Z,15.33
2018-11-13T04:40:20.310Z,15.56
2018-11-13T04:42:53.632Z,15.54
2018-11-13T04:45:24.467Z,15.60
2018-11-13T04:47:53.710Z,15.65
2018-11-13T04:50:23.636Z,15.51
2018-11-13T04:52:52.930Z,15.56
2018-11-13T04:55:22.379Z,15.70
2018-11-13T04:57:51.612Z,15.75
2018-11-13T05:00:22.411Z,15.77
2018-11-13T05:02:51.823Z,15.57
2018-11-13T05:05:22.048Z,15.68
2018-11-13T05:07:53.401Z,15.70
2018-11-13T05:10:23.079Z,15.46
2018-11-13T05:12:52.483Z,15.53
2018-11-13T05:15:21.885Z,15.43
2018-11-13T05:17:51.374Z,15.55
2018-11-13T05:20:20.607Z,15.61
2018-11-13T05:22:49.982Z,15.72
2018-11-13T05:25:20.668Z,15.70
2018-11-13T05:27:50.137Z,15.70
2018-11-13T05:30:20.798Z,15.73
2018-11-13T05:32:50.164Z,15.75
2018-11-13T05:35:20.581Z,15.82
2018-11-13T05:37:50.388Z,15.78
2018-11-13T05:40:21.128Z,15.78
2018-11-13T05:42:50.638Z,15.67
2018-11-13T05:45:21.737Z,15.69
2018-11-13T05:47:51.277Z,15.50
2018-11-13T05:50:21.059Z,15.47
2018-11-13T05:52:51.928Z,15.41
2018-11-13T05:55:21.324Z,15.40
2018-11-13T05:57:51.104Z,15.34
2018-11-13T06:00:23.928Z,15.48
2018-11-13T06:02:53.320Z,15.57
2018-11-13T06:05:22.777Z,15.42
2018-11-13T06:07:52.118Z,15.48
2018-11-13T06:10:21.665Z,15.36
2018-11-13T06:12:50.932Z,15.27
2018-11-13T06:15:20.515Z,14.84
2018-11-13T06:17:49.981Z,14.89
2018-11-13T06:20:19.423Z,14.93
2018-11-13T06:22:48.747Z,14.99
2018-11-13T06:25:18.449Z,14.99
2018-11-13T06:27:49.083Z,14.87
2018-11-13T06:30:21.654Z,14.77
2018-11-13T06:32:51.570Z,14.83
2018-11-13T06:35:20.814Z,14.73
2018-11-13T06:37:50.439Z,15.03
2018-11-13T06:40:19.777Z,15.15
2018-11-13T06:42:49.081Z,15.29
2018-11-13T06:45:19.863Z,15.29
2018-11-13T06:47:49.726Z,15.35
2018-11-13T06:50:19.225Z,15.37
2018-11-13T06:52:49.312Z,15.19
2018-11-13T06:55:29.586Z,15.25
2018-11-13T06:57:59.101Z,15.29
2018-11-13T07:00:28.371Z,15.08
2018-11-13T07:02:57.634Z,15.05
2018-11-13T07:05:27.207Z,14.91
2018-11-13T07:07:56.438Z,14.77
2018-11-13T07:10:26.671Z,14.78
2018-11-13T07:12:56.594Z,14.59
2018-11-13T07:15:27.024Z,14.52
2018-11-13T07:18:00.691Z,14.60
2018-11-13T07:20:31.405Z,14.43
2018-11-13T07:23:00.802Z,14.73
2018-11-13T07:25:30.028Z,14.77
2018-11-13T07:27:59.355Z,14.57
2018-11-13T07:30:28.972Z,14.62
2018-11-13T07:32:58.291Z,14.55
2018-11-13T07:35:27.521Z,14.54
2018-11-13T07:37:58.237Z,14.68
2018-11-13T07:40:27.442Z,14.51
2018-11-13T07:42:56.853Z,14.59
2018-11-13T07:45:26.235Z,14.64
2018-11-13T07:47:55.804Z,14.90
2018-11-13T07:50:25.246Z,14.94
2018-11-13T07:52:54.479Z,14.84
2018-11-13T07:55:23.945Z,15.06
2018-11-13T07:57:53.348Z,15.12
2018-11-13T08:00:24.081Z,15.18
2018-11-13T08:02:54.798Z,15.19
2018-11-13T08:05:24.071Z,15.14
2018-11-13T08:07:53.500Z,15.21
2018-11-13T08:10:22.951Z,15.34
2018-11-13T08:12:52.406Z,15.47
2018-11-13T08:15:21.719Z,15.50
2018-11-13T08:17:51.226Z,15.44
2018-11-13T08:20:20.628Z,15.40
2018-11-13T08:22:50.029Z,15.23
2018-11-13T08:25:19.485Z,15.40
2018-11-13T08:27:48.707Z,15.18
2018-11-13T08:30:19.106Z,15.00
2018-11-13T08:32:48.966Z,15.22
2018-11-13T08:35:18.219Z,15.07
2018-11-13T08:37:47.477Z,15.00
2018-11-13T08:40:17.928Z,14.82
2018-11-13T08:42:48.012Z,14.72
2018-11-13T08:45:17.614Z,14.82
2018-11-13T08:47:46.894Z,14.70
2018-11-13T08:50:16.454Z,14.91
2018-11-13T08:52:46.380Z,14.96
2018-11-13T08:55:15.934Z,15.08
2018-11-13T08:57:45.430Z,14.75
2018-11-13T09:00:16.175Z,14.67
2018-11-13T09:02:46.090Z,14.27
2018-11-13T09:05:15.704Z,14.19
2018-11-13T09:07:45.191Z,13.86
2018-11-13T09:10:15.848Z,13.83
2018-11-13T09:12:45.439Z,13.98
2018-11-13T09:15:16.160Z,14.37
2018-11-13T09:17:45.422Z,14.14
2018-11-13T09:20:15.927Z,13.84
2018-11-13T09:22:45.199Z,13.97
2018-11-13T09:25:15.909Z,14.08
2018-11-13T09:27:45.183Z,13.83
2018-11-13T09:30:18.294Z,13.85
2018-11-13T09:32:47.873Z,13.85
2018-11-13T09:35:17.929Z,13.85
2018-11-13T09:37:47.235Z,13.90
2018-11-13T09:40:18.257Z,14.07
2018-11-13T09:42:48.887Z,13.71
2018-11-13T09:45:18.720Z,14.01
2018-11-13T09:47:48.247Z,14.07
2018-11-13T09:50:18.823Z,13.94
2018-11-13T09:52:49.144Z,13.66
2018-11-13T09:55:20.247Z,13.49
2018-11-13T09:57:49.625Z,13.94
2018-11-13T10:00:20.813Z,13.70
2018-11-13T10:02:54.081Z,13.56
2018-11-13T10:05:23.415Z,13.96
2018-11-13T10:07:53.373Z,14.02
2018-11-13T10:10:23.447Z,13.65
2018-11-13T10:12:52.687Z,13.85
2018-11-13T10:15:25.572Z,12.10
2018-11-13T10:17:55.114Z,13.63
2018-11-13T10:20:24.380Z,14.06
2018-11-13T10:22:54.899Z,14.47
2018-11-13T10:25:24.410Z,14.31
2018-11-13T10:27:53.753Z,14.41
2018-11-13T10:30:24.224Z,14.55
2018-11-13T10:32:54.151Z,14.32
2018-11-13T10:35:24.635Z,14.61
2018-11-13T10:37:53.875Z,14.44
2018-11-13T10:40:23.934Z,14.62
2018-11-13T10:42:53.580Z,14.80
2018-11-13T10:45:24.435Z,14.91
2018-11-13T10:47:54.002Z,14.54
2018-11-13T10:50:24.554Z,14.33
2018-11-13T10:52:54.310Z,14.39
2018-11-13T10:55:24.092Z,14.73
2018-11-13T10:57:53.418Z,14.97
2018-11-13T11:00:28.326Z,15.10
2018-11-13T11:03:03.221Z,15.42
2018-11-13T11:05:32.862Z,15.48
2018-11-13T11:08:02.267Z,15.79
2018-11-13T11:10:31.594Z,15.69
2018-11-13T11:13:01.271Z,15.46
2018-11-13T11:15:30.587Z,15.27
2018-11-13T11:18:00.116Z,15.35
2018-11-13T11:20:29.580Z,15.16
2018-11-13T11:22:59.024Z,15.34
2018-11-13T11:25:28.396Z,15.35
2018-11-13T11:27:57.649Z,15.11
2018-11-13T11:30:26.986Z,15.05
2018-11-13T11:32:56.565Z,15.05
2018-11-13T11:35:26.014Z,15.24
2018-11-13T11:37:55.603Z,14.84
2018-11-13T11:40:24.996Z,14.64
2018-11-13T11:42:54.622Z,14.62
2018-11-13T11:45:23.878Z,14.50
2018-11-13T11:47:53.127Z,14.75
2018-11-13T11:50:22.366Z,14.75
2018-11-13T11:52:51.546Z,14.49
2018-11-13T11:55:20.991Z,14.50
2018-11-13T11:57:50.182Z,14.49
2018-11-13T12:00:23.658Z,14.95
2018-11-13T12:02:52.987Z,15.14
2018-11-13T12:05:22.281Z,15.13
2018-11-13T12:07:51.530Z,15.04
2018-11-13T12:10:20.795Z,14.84
2018-11-13T12:12:49.999Z,14.69
2018-11-13T12:15:19.349Z,14.78
2018-11-13T12:17:48.575Z,14.66
2018-11-13T12:20:17.831Z,14.85
2018-11-13T12:22:47.225Z,15.10
2018-11-13T12:25:20.163Z,15.06
2018-11-13T12:27:48.396Z,15.11
2018-11-13T12:30:18.976Z,15.55
2018-11-13T12:32:49.624Z,15.73
2018-11-13T12:35:20.101Z,15.63
2018-11-13T12:37:49.573Z,15.57
2018-11-13T12:40:23.986Z,15.58
2018-11-13T12:42:53.480Z,15.66
2018-11-13T12:45:23.006Z,15.81
2018-11-13T12:47:52.293Z,15.82
2018-11-13T12:50:21.761Z,15.84
2018-11-13T12:52:51.096Z,15.79
2018-11-13T12:55:21.763Z,15.86
2018-11-13T12:57:51.028Z,15.75
2018-11-13T13:00:23.550Z,15.85
2018-11-13T13:02:52.890Z,15.81
2018-11-13T13:05:22.682Z,15.92
2018-11-13T13:07:51.982Z,15.68
2018-11-13T13:10:22.151Z,15.66
2018-11-13T13:12:51.603Z,15.76
2018-11-13T13:15:21.312Z,15.69
2018-11-13T13:17:50.817Z,15.70
2018-11-13T13:20:21.597Z,15.87
2018-11-13T13:22:51.674Z,15.85
2018-11-13T13:25:22.071Z,15.62
2018-11-13T13:27:51.496Z,15.63
2018-11-13T13:30:24.281Z,15.36
2018-11-13T13:32:53.633Z,14.68
2018-11-13T13:35:38.035Z,14.91
2018-11-13T13:38:08.767Z,14.69
2018-11-13T13:40:39.075Z,14.60
2018-11-13T13:43:09.836Z,14.93
2018-11-13T13:45:40.759Z,15.23
2018-11-13T13:48:10.270Z,15.04
2018-11-13T13:50:40.031Z,15.50
2018-11-13T13:53:10.625Z,15.87
2018-11-13T13:55:40.522Z,15.97
2018-11-13T13:58:10.643Z,15.84
2018-11-13T14:00:40.173Z,15.64
2018-11-13T14:03:10.801Z,15.10
2018-11-13T14:05:40.739Z,15.09
2018-11-13T14:08:11.623Z,15.21
2018-11-13T14:10:41.960Z,15.07
2018-11-13T14:13:11.867Z,14.48
2018-11-13T14:15:41.235Z,14.29
2018-11-13T14:18:11.083Z,14.46
2018-11-13T14:20:40.420Z,14.24
2018-11-13T14:23:09.876Z,14.09
2018-11-13T14:25:39.767Z,14.17
2018-11-13T14:28:10.117Z,14.20
2018-11-13T14:30:40.027Z,14.68
2018-11-13T14:33:10.921Z,14.84
2018-11-13T14:35:40.566Z,14.69
2018-11-13T14:38:10.076Z,14.85
2018-11-13T14:40:41.796Z,14.81
2018-11-13T14:43:11.465Z,14.69
2018-11-13T14:45:40.948Z,14.79
2018-11-13T14:48:11.175Z,14.59
2018-11-13T14:50:41.181Z,14.57
2018-11-13T14:53:11.315Z,14.63
2018-11-13T14:55:42.368Z,15.03
2018-11-13T14:58:12.855Z,15.35
2018-11-13T15:00:42.575Z,15.04
2018-11-13T15:03:13.516Z,15.04
2018-11-13T15:05:42.915Z,15.05
2018-11-13T15:08:12.727Z,14.85
2018-11-13T15:10:44.249Z,14.93
2018-11-13T15:13:14.337Z,14.92
2018-11-13T15:15:43.702Z,15.13
2018-11-13T15:18:13.157Z,15.33
2018-11-13T15:20:42.831Z,15.47
2018-11-13T15:23:13.545Z,15.45
2018-11-13T15:25:42.944Z,15.49
2018-11-13T15:28:12.962Z,15.15
2018-11-13T15:30:44.847Z,15.11
2018-11-13T15:33:16.610Z,15.19
2018-11-13T15:35:46.390Z,15.12
2018-11-13T15:38:15.577Z,15.13
2018-11-13T15:40:45.122Z,14.84
2018-11-13T15:43:14.456Z,14.92
2018-11-13T15:45:43.803Z,14.73
2018-11-13T15:48:14.315Z,14.81
2018-11-13T15:50:43.777Z,14.66
2018-11-13T15:53:13.432Z,14.45
2018-11-13T15:55:42.671Z,14.41
2018-11-13T15:58:12.234Z,14.16
2018-11-13T16:00:42.556Z,13.75
2018-11-13T16:03:13.978Z,13.99
2018-11-13T16:05:44.987Z,14.09
2018-11-13T16:08:14.393Z,14.13
2018-11-13T16:10:43.910Z,14.04
2018-11-13T16:13:13.970Z,14.23
2018-11-13T16:15:43.881Z,14.08
2018-11-13T16:18:14.624Z,14.23
2018-11-13T16:20:44.120Z,14.26
2018-11-13T16:23:13.407Z,14.41
2018-11-13T16:25:42.620Z,14.47
2018-11-13T16:28:11.851Z,14.46
2018-11-13T16:30:41.844Z,14.19
2018-11-13T16:33:11.202Z,14.28
2018-11-13T16:35:40.735Z,14.23
2018-11-13T16:38:11.290Z,14.30
2018-11-13T16:40:41.207Z,14.27
2018-11-13T16:43:10.272Z,14.03
2018-11-13T16:45:39.779Z,14.11
2018-11-13T16:48:09.495Z,14.12
2018-11-13T16:50:40.122Z,14.21
2018-11-13T16:53:09.519Z,14.11
2018-11-13T16:55:44.096Z,14.00
2018-11-13T16:58:14.502Z,14.00
2018-11-13T17:00:43.857Z,13.92
2018-11-13T17:03:13.278Z,13.98
2018-11-13T17:05:42.706Z,13.90
2018-11-13T17:08:12.075Z,13.89
2018-11-13T17:10:42.686Z,13.91
2018-11-13T17:13:12.094Z,13.94
2018-11-13T17:15:41.461Z,13.92
2018-11-13T17:18:10.811Z,13.95
2018-11-13T17:20:40.071Z,13.91
2018-11-13T17:23:09.509Z,13.97
2018-11-13T17:25:39.832Z,13.79
2018-11-13T17:28:09.445Z,13.77
2018-11-13T17:30:39.047Z,13.63
2018-11-13T17:33:09.833Z,13.64
2018-11-13T17:35:39.104Z,13.65
2018-11-13T17:38:08.374Z,13.63
2018-11-13T17:40:38.497Z,13.61
2018-11-13T17:43:08.726Z,13.42
2018-11-13T17:45:48.630Z,13.31
2018-11-13T17:48:18.074Z,13.40
2018-11-13T17:50:47.365Z,13.44
2018-11-13T17:53:16.691Z,13.48
2018-11-13T17:55:47.201Z,13.25
2018-11-13T17:58:16.699Z,12.97
2018-11-13T18:00:47.330Z,13.13
2018-11-13T18:03:17.816Z,13.18
2018-11-13T18:05:48.167Z,12.94
2018-11-13T18:08:17.484Z,12.97
2018-11-13T18:10:47.708Z,13.13
2018-11-13T18:13:17.205Z,13.16
2018-11-13T18:15:46.661Z,13.15
2018-11-13T18:18:16.146Z,13.19
2018-11-13T18:20:45.617Z,13.18
2018-11-13T18:23:15.164Z,13.15
2018-11-13T18:25:44.727Z,13.15
2018-11-13T18:28:14.236Z,12.91
2018-11-13T18:30:43.637Z,12.93
2018-11-13T18:33:13.050Z,12.76
2018-11-13T18:35:42.629Z,12.75
2018-11-13T18:38:13.307Z,12.80
2018-11-13T18:40:42.610Z,12.71
2018-11-13T18:43:12.178Z,12.62
2018-11-13T18:45:42.406Z,12.78
2018-11-13T18:48:11.851Z,12.97
2018-11-13T18:50:43.482Z,12.98
2018-11-13T18:53:12.907Z,13.02
2018-11-13T18:55:42.247Z,12.78
2018-11-13T18:58:11.919Z,13.01
2018-11-13T19:00:41.883Z,12.64
2018-11-13T19:03:12.600Z,12.93
2018-11-13T19:05:42.864Z,13.05
2018-11-13T19:08:12.344Z,12.98
2018-11-13T19:10:44.127Z,13.08
2018-11-13T19:13:18.209Z,13.06
2018-11-13T19:15:51.529Z,13.09
2018-11-13T19:18:21.967Z,13.00
2018-11-13T19:20:51.982Z,13.06
2018-11-13T19:23:21.843Z,13.03
2018-11-13T19:25:51.420Z,12.98
2018-11-13T19:28:20.868Z,12.98
2018-11-13T19:30:50.232Z,12.87
2018-11-13T19:33:20.069Z,12.73
2018-11-13T19:35:49.521Z,12.85
2018-11-13T19:38:19.897Z,12.60
2018-11-13T19:40:49.649Z,12.71
2018-11-13T19:43:20.146Z,12.50
2018-11-13T19:45:49.651Z,12.56
2018-11-13T19:48:19.162Z,12.48
2018-11-13T19:50:48.663Z,12.46
2018-11-13T19:53:18.638Z,12.41
2018-11-13T19:55:48.149Z,12.38
2018-11-13T19:58:17.742Z,12.24
2018-11-13T20:00:47.314Z,12.19
2018-11-13T20:03:16.647Z,12.26
2018-11-13T20:05:46.712Z,12.22
2018-11-13T20:08:16.112Z,12.18
2018-11-13T20:10:45.918Z,12.26
2018-11-13T20:13:15.531Z,12.25
2018-11-13T20:15:45.365Z,12.24
2018-11-13T20:18:15.158Z,12.19
2018-11-13T20:20:44.977Z,12.22
2018-11-13T20:23:15.239Z,12.16
2018-11-13T20:25:44.739Z,11.92
2018-11-13T20:28:14.396Z,11.75
2018-11-13T20:30:44.032Z,11.80
2018-11-13T20:33:14.025Z,11.68
2018-11-13T20:35:44.048Z,11.64
2018-11-13T20:38:13.872Z,11.66
2018-11-13T20:40:43.558Z,11.85
2018-11-13T20:43:13.730Z,11.75
2018-11-13T20:45:43.075Z,11.60
2018-11-13T20:48:12.342Z,11.78
2018-11-13T20:50:41.895Z,11.67
2018-11-13T20:53:11.214Z,11.51
2018-11-13T20:55:40.519Z,11.45
2018-11-13T20:58:10.084Z,11.40
2018-11-13T21:00:39.387Z,11.48
2018-11-13T21:03:08.889Z,11.46
2018-11-13T21:05:38.186Z,11.48
2018-11-13T21:08:07.896Z,11.41
2018-11-13T21:10:40.019Z,11.53
2018-11-13T21:13:10.179Z,11.46
2018-11-13T21:15:39.610Z,11.32
2018-11-13T21:18:09.088Z,11.18
2018-11-13T21:20:38.363Z,11.39
2018-11-13T21:23:07.566Z,11.35
2018-11-13T21:25:36.814Z,11.15
2018-11-13T21:28:06.049Z,10.99
2018-11-13T21:30:35.662Z,11.08
2018-11-13T21:33:05.295Z,11.13
2018-11-13T21:35:34.528Z,10.89
2018-11-13T21:38:03.893Z,10.69
2018-11-13T21:40:33.133Z,10.61
2018-11-13T21:43:02.357Z,10.60
2018-11-13T21:45:31.643Z,10.84
2018-11-13T21:48:00.816Z,11.07
2018-11-13T21:50:30.404Z,11.13
2018-11-13T21:52:59.862Z,11.20
2018-11-13T21:55:30.292Z,11.42
2018-11-13T21:58:00.033Z,11.29
2018-11-13T22:00:31.550Z,11.20
2018-11-13T22:03:03.846Z,11.32
2018-11-13T22:05:34.173Z,11.17
2018-11-13T22:08:03.816Z,10.92
2018-11-13T22:10:33.180Z,11.01
2018-11-13T22:13:04.092Z,11.17
2018-11-13T22:15:33.590Z,11.20
2018-11-13T22:18:03.540Z,11.19
2018-11-13T22:20:33.145Z,11.22
2018-11-13T22:23:02.967Z,11.10
2018-11-13T22:25:32.977Z,11.20
2018-11-13T22:28:02.664Z,11.21
2018-11-13T22:30:32.531Z,11.40
2018-11-13T22:33:01.999Z,11.30
2018-11-13T22:35:31.720Z,11.26
2018-11-13T22:38:01.196Z,11.15
2018-11-13T22:40:31.021Z,11.12
2018-11-13T22:43:01.105Z,11.09
2018-11-13T22:45:30.806Z,11.14
2018-11-13T22:48:00.360Z,11.24
2018-11-13T22:50:34.197Z,11.34
2018-11-13T22:53:04.177Z,11.14
2018-11-13T22:55:33.604Z,11.07
2018-11-13T22:58:03.076Z,11.04
2018-11-13T23:00:38.727Z,11.16
2018-11-13T23:03:09.516Z,11.10
2018-11-13T23:05:38.934Z,11.18
2018-11-13T23:08:09.240Z,11.22
2018-11-13T23:10:38.794Z,11.24
2018-11-13T23:13:08.220Z,11.29
2018-11-13T23:15:37.453Z,11.25
2018-11-13T23:18:07.129Z,11.23
2018-11-13T23:20:36.538Z,11.20
2018-11-13T23:23:06.371Z,11.13
2018-11-13T23:25:35.667Z,11.14
2018-11-13T23:28:05.649Z,11.17
2018-11-13T23:30:35.056Z,11.08
2018-11-13T23:33:04.401Z,11.02
2018-11-13T23:35:33.659Z,11.04
2018-11-13T23:38:03.394Z,10.91
2018-11-13T23:40:32.501Z,10.87
2018-11-13T23:43:01.938Z,10.90
2018-11-13T23:45:31.190Z,10.86
2018-11-13T23:48:00.853Z,10.74
2018-11-13T23:50:29.762Z,10.67
2018-11-13T23:52:59.090Z,10.78
2018-11-13T23:55:28.447Z,10.84
2018-11-13T23:57:57.941Z,10.75
